Time;durP1;ratioP1;P1;durP2;ratioP2;P2;SDS_P1;SDS_P2;PMS_P1;PMS_P2;Temp;Humidity;BMP_temperature;BMP_pressure;BME280_temperature;BME280_humidity;BME280_pressure;Samples;Min_cycle;Max_cycle;Signal;HPM_P1;HPM_P2
2020/12/14 00:00:41;;;;;;;4.13;1.30;;;8.70;92.20;;;;;;4992743;28;20100;-74
2020/12/14 00:03:07;;;;;;;3.25;1.00;;;8.70;92.20;;;;;;4992082;28;20045;-74
2020/12/14 00:05:33;;;;;;;4.07;1.08;;;8.70;92.20;;;;;;4992617;28;20133;-74
2020/12/14 00:07:58;;;;;;;2.20;1.23;;;8.70;92.20;;;;;;4991956;28;20022;-73
2020/12/14 00:10:24;;;;;;;5.05;1.00;;;8.70;92.20;;;;;;4991784;28;20033;-75
2020/12/14 00:12:50;;;;;;;7.07;1.40;;;8.70;92.20;;;;;;4991149;28;20032;-74
2020/12/14 00:15:15;;;;;;;1.58;1.00;;;8.70;92.20;;;;;;4991744;28;20096;-75
2020/12/14 00:17:41;;;;;;;2.00;1.10;;;8.70;92.20;;;;;;5007425;28;20022;-75
2020/12/14 00:20:07;;;;;;;2.40;0.90;;;8.80;92.20;;;;;;4991422;28;20038;-74
2020/12/14 00:22:34;;;;;;;3.65;1.30;;;8.80;92.20;;;;;;4991324;28;20018;-75
2020/12/14 00:25:02;;;;;;;6.32;1.42;;;8.80;92.20;;;;;;4992276;28;20046;-74
2020/12/14 00:27:28;;;;;;;2.22;1.30;;;8.80;92.10;;;;;;4991713;28;20516;-74
2020/12/14 00:29:53;;;;;;;4.25;1.40;;;8.80;92.10;;;;;;4992139;28;20109;-75
2020/12/14 00:32:19;;;;;;;1.85;0.98;;;8.70;92.00;;;;;;4991672;28;20352;-74
2020/12/14 00:34:45;;;;;;;1.10;1.02;;;8.70;92.10;;;;;;4991836;28;20045;-74
2020/12/14 00:37:11;;;;;;;2.97;1.25;;;8.80;92.10;;;;;;4991237;28;20030;-75
2020/12/14 00:39:37;;;;;;;2.40;0.90;;;8.80;92.00;;;;;;4990670;28;20026;-74
2020/12/14 00:42:04;;;;;;;1.65;1.00;;;8.80;92.10;;;;;;4992041;28;20029;-73
2020/12/14 00:44:30;;;;;;;3.90;1.20;;;8.80;92.00;;;;;;5006979;28;20382;-74
2020/12/14 00:46:56;;;;;;;2.35;1.23;;;8.80;92.00;;;;;;4991553;28;20467;-73
2020/12/14 00:49:22;;;;;;;1.08;0.80;;;8.80;92.00;;;;;;4991509;28;20418;-74
2020/12/14 00:51:47;;;;;;;1.33;0.75;;;8.80;92.00;;;;;;4991709;28;20048;-74
2020/12/14 00:54:13;;;;;;;2.88;1.10;;;8.80;92.00;;;;;;4989347;28;20054;-74
2020/12/14 00:56:39;;;;;;;4.90;1.48;;;8.80;92.00;;;;;;4990229;28;20026;-74
2020/12/14 00:59:05;;;;;;;3.75;1.10;;;8.80;92.00;;;;;;4991257;28;20434;-73
2020/12/14 01:01:31;;;;;;;2.40;0.90;;;8.80;92.00;;;;;;4989935;28;20026;-73
2020/12/14 01:03:57;;;;;;;3.55;0.70;;;8.80;92.00;;;;;;4991490;28;20455;-73
2020/12/14 01:06:22;;;;;;;2.45;1.30;;;8.80;92.00;;;;;;4990948;28;20030;-74
2020/12/14 01:08:48;;;;;;;1.70;0.88;;;8.80;92.00;;;;;;4991680;28;20106;-73
2020/12/14 01:11:14;;;;;;;2.00;0.82;;;8.90;92.00;;;;;;4990864;28;20030;-74
2020/12/14 01:13:39;;;;;;;1.33;0.90;;;8.90;92.00;;;;;;5005859;28;20023;-73
2020/12/14 01:16:08;;;;;;;2.42;0.90;;;8.90;92.00;;;;;;4991424;28;20023;-74
2020/12/14 01:18:38;;;;;;;1.40;1.00;;;8.90;92.00;;;;;;4991572;28;20018;-74
2020/12/14 01:21:04;;;;;;;3.17;1.75;;;8.90;92.00;;;;;;4991369;28;20026;-73
2020/12/14 01:23:31;;;;;;;4.97;1.23;;;8.90;92.00;;;;;;4989123;28;20019;-73
2020/12/14 01:25:56;;;;;;;1.25;0.63;;;9.00;92.00;;;;;;5005291;28;20030;-73
2020/12/14 01:28:22;;;;;;;1.00;0.77;;;9.00;92.00;;;;;;5007825;28;20018;-74
2020/12/14 01:30:48;;;;;;;2.20;0.90;;;9.00;91.90;;;;;;4993220;28;20026;-74
2020/12/14 01:33:13;;;;;;;4.20;0.95;;;9.00;91.90;;;;;;5007868;28;20026;-75
2020/12/14 01:35:39;;;;;;;1.52;0.90;;;9.00;91.90;;;;;;4992077;28;20374;-75
2020/12/14 01:38:05;;;;;;;1.65;1.08;;;9.00;91.90;;;;;;4992158;28;20018;-75
2020/12/14 01:40:30;;;;;;;2.92;1.05;;;9.00;91.90;;;;;;5007866;28;20370;-75
2020/12/14 01:42:56;;;;;;;1.42;0.90;;;9.00;91.90;;;;;;4993132;28;20080;-75
2020/12/14 01:45:23;;;;;;;1.50;0.82;;;9.00;91.90;;;;;;4992707;28;20034;-75
2020/12/14 01:47:51;;;;;;;1.10;0.80;;;9.00;91.90;;;;;;5008117;28;20050;-75
2020/12/14 01:50:17;;;;;;;2.13;0.98;;;9.00;91.90;;;;;;4990730;28;20117;-75
2020/12/14 01:52:44;;;;;;;1.20;0.75;;;9.00;91.90;;;;;;4993034;28;20046;-75
2020/12/14 01:55:13;;;;;;;3.63;1.05;;;9.00;91.90;;;;;;4991670;28;20030;-84
2020/12/14 01:57:39;;;;;;;2.53;1.13;;;9.00;91.90;;;;;;4992928;28;20026;-75
2020/12/14 02:00:09;;;;;;;3.65;1.13;;;9.00;91.90;;;;;;4993081;28;20022;-75
2020/12/14 02:02:36;;;;;;;1.77;1.08;;;9.10;91.90;;;;;;4992591;28;20030;-75
2020/12/14 02:05:03;;;;;;;2.10;0.90;;;9.00;91.80;;;;;;4992632;28;20490;-75
2020/12/14 02:07:29;;;;;;;2.95;1.13;;;9.00;91.90;;;;;;5007549;28;20023;-74
2020/12/14 02:09:55;;;;;;;1.88;1.05;;;9.10;91.90;;;;;;4991550;28;20022;-75
2020/12/14 02:12:25;;;;;;;2.90;1.27;;;9.10;91.80;;;;;;4992460;28;20425;-75
2020/12/14 02:14:52;;;;;;;2.67;1.20;;;9.10;91.90;;;;;;4992956;28;20034;-75
2020/12/14 02:17:19;;;;;;;2.08;0.90;;;9.10;91.80;;;;;;5007423;28;20390;-75
2020/12/14 02:19:46;;;;;;;4.95;1.13;;;9.10;91.90;;;;;;4992899;28;20026;-75
2020/12/14 02:22:12;;;;;;;1.85;0.90;;;9.20;91.80;;;;;;4992816;28;20030;-75
2020/12/14 02:24:38;;;;;;;1.67;0.80;;;9.10;91.80;;;;;;4992668;28;20038;-75
2020/12/14 02:27:03;;;;;;;2.10;1.10;;;9.10;91.70;;;;;;4992835;28;20030;-75
2020/12/14 02:29:29;;;;;;;2.53;0.90;;;9.10;91.70;;;;;;5007200;28;20022;-75
2020/12/14 02:31:55;;;;;;;1.30;0.85;;;9.10;91.80;;;;;;4992693;28;20022;-75
2020/12/14 02:34:20;;;;;;;3.65;1.30;;;9.20;91.80;;;;;;4991827;28;20030;-75
2020/12/14 02:36:46;;;;;;;1.85;0.90;;;9.10;91.80;;;;;;4992457;28;20467;-75
2020/12/14 02:39:12;;;;;;;2.58;0.75;;;9.20;91.80;;;;;;5007618;28;20061;-75
2020/12/14 02:41:37;;;;;;;2.35;1.02;;;9.20;91.80;;;;;;4990791;28;20076;-75
2020/12/14 02:44:03;;;;;;;6.25;1.02;;;9.20;91.70;;;;;;4992198;28;20391;-75
2020/12/14 02:46:29;;;;;;;0.93;0.77;;;9.10;91.70;;;;;;4994911;28;20117;-75
2020/12/14 02:48:54;;;;;;;4.40;1.40;;;9.20;91.80;;;;;;4996367;28;20076;-75
2020/12/14 02:51:20;;;;;;;1.30;0.65;;;9.10;91.80;;;;;;5011067;28;20113;-75
2020/12/14 02:53:47;;;;;;;2.00;0.90;;;9.10;91.80;;;;;;5011366;28;20431;-75
2020/12/14 02:56:13;;;;;;;1.30;0.80;;;9.10;91.80;;;;;;4996122;28;20402;-75
2020/12/14 02:58:38;;;;;;;2.53;1.13;;;9.20;91.80;;;;;;4995919;28;20099;-76
2020/12/14 03:01:04;;;;;;;2.70;2.08;;;9.10;91.80;;;;;;4995059;28;20053;-75
2020/12/14 03:03:30;;;;;;;1.98;0.85;;;9.10;91.80;;;;;;4995818;28;20022;-75
2020/12/14 03:05:55;;;;;;;3.38;1.10;;;9.10;91.80;;;;;;4996213;28;20039;-75
2020/12/14 03:08:21;;;;;;;2.65;0.82;;;9.10;91.90;;;;;;4995380;28;20033;-76
2020/12/14 03:10:47;;;;;;;1.80;1.23;;;9.10;91.90;;;;;;5011135;28;20397;-75
2020/12/14 03:13:12;;;;;;;2.85;1.20;;;9.10;91.90;;;;;;4995826;28;20038;-75
2020/12/14 03:15:41;;;;;;;4.43;1.00;;;9.10;91.90;;;;;;4994934;28;20470;-75
2020/12/14 03:18:06;;;;;;;1.42;0.80;;;9.10;92.00;;;;;;4995382;28;20113;-78
2020/12/14 03:20:33;;;;;;;2.53;0.75;;;9.10;91.90;;;;;;4995061;28;20117;-74
2020/12/14 03:22:59;;;;;;;1.02;0.75;;;9.10;92.00;;;;;;4995296;28;20029;-75
2020/12/14 03:25:24;;;;;;;1.63;1.08;;;9.10;92.00;;;;;;4994594;28;20039;-75
2020/12/14 03:27:50;;;;;;;3.03;0.98;;;9.20;92.00;;;;;;4993726;28;20022;-75
2020/12/14 03:30:16;;;;;;;2.75;1.25;;;9.10;92.00;;;;;;5009995;28;20030;-85
2020/12/14 03:32:41;;;;;;;1.95;1.10;;;9.20;92.00;;;;;;5010039;28;20072;-75
2020/12/14 03:35:07;;;;;;;1.98;0.75;;;9.20;92.00;;;;;;4993572;28;20471;-75
2020/12/14 03:37:32;;;;;;;1.92;1.20;;;9.10;92.00;;;;;;5009202;28;20030;-75
2020/12/14 03:39:58;;;;;;;1.45;0.80;;;9.20;92.00;;;;;;4994525;28;20394;-76
2020/12/14 03:42:24;;;;;;;3.65;1.08;;;9.10;92.00;;;;;;4994112;28;20418;-75
2020/12/14 03:44:49;;;;;;;1.20;0.75;;;9.20;92.00;;;;;;4995291;28;20117;-75
2020/12/14 03:47:15;;;;;;;3.42;1.02;;;9.20;92.00;;;;;;4995654;28;20096;-75
2020/12/14 03:49:41;;;;;;;1.55;0.85;;;9.20;92.00;;;;;;5009969;28;20026;-77
2020/12/14 03:52:06;;;;;;;2.45;0.95;;;9.20;92.00;;;;;;4995125;28;20027;-77
2020/12/14 03:54:32;;;;;;;2.25;0.80;;;9.20;92.10;;;;;;4994594;28;20037;-76
2020/12/14 03:56:57;;;;;;;2.20;0.80;;;9.20;92.10;;;;;;4994146;28;20475;-75
2020/12/14 03:59:23;;;;;;;2.70;0.95;;;9.20;92.10;;;;;;4994791;28;20022;-77
2020/12/14 04:01:55;;;;;;;2.20;1.13;;;9.20;92.10;;;;;;4995288;28;20023;-76
2020/12/14 04:04:20;;;;;;;2.30;0.93;;;9.20;92.10;;;;;;4994689;28;20474;-77
2020/12/14 04:06:46;;;;;;;2.28;0.98;;;9.10;92.10;;;;;;5009694;28;20054;-75
2020/12/14 04:09:12;;;;;;;2.60;1.10;;;9.10;92.10;;;;;;4994949;28;20057;-75
2020/12/14 04:11:37;;;;;;;1.73;0.80;;;9.10;92.10;;;;;;4994358;28;20026;-75
2020/12/14 04:14:03;;;;;;;1.95;0.93;;;9.10;92.10;;;;;;4994914;28;20030;-75
2020/12/14 04:16:29;;;;;;;1.98;1.02;;;9.10;92.40;;;;;;4994145;28;20518;-75
2020/12/14 04:18:54;;;;;;;1.65;0.90;;;9.10;92.40;;;;;;4994934;28;20075;-75
2020/12/14 04:21:20;;;;;;;2.40;1.08;;;9.10;92.10;;;;;;4994563;28;20023;-79
2020/12/14 04:23:45;;;;;;;4.15;1.40;;;9.10;92.20;;;;;;4994696;28;20018;-76
2020/12/14 04:26:14;;;;;;;2.50;0.82;;;9.10;92.20;;;;;;4994342;28;20073;-75
2020/12/14 04:28:40;;;;;;;1.63;0.95;;;9.20;92.20;;;;;;4994088;28;20526;-75
2020/12/14 04:31:06;;;;;;;2.90;1.20;;;9.20;92.20;;;;;;4994807;28;20477;-75
2020/12/14 04:33:31;;;;;;;4.68;1.08;;;9.10;92.20;;;;;;4993176;28;20038;-76
2020/12/14 04:35:57;;;;;;;1.40;0.88;;;9.10;92.20;;;;;;4994578;28;20031;-76
2020/12/14 04:38:23;;;;;;;1.08;0.63;;;9.10;92.20;;;;;;4993978;28;20030;-76
2020/12/14 04:40:48;;;;;;;2.97;1.25;;;9.10;92.30;;;;;;4992965;28;20057;-76
2020/12/14 04:43:15;;;;;;;2.15;1.02;;;9.10;92.30;;;;;;4994178;28;20050;-76
2020/12/14 04:45:43;;;;;;;4.18;1.30;;;9.10;92.30;;;;;;4992519;28;20289;-75
2020/12/14 04:48:09;;;;;;;2.97;1.05;;;9.10;92.30;;;;;;4994357;28;20114;-75
2020/12/14 04:50:35;;;;;;;4.38;1.20;;;9.10;92.30;;;;;;4993953;28;20101;-75
2020/12/14 04:53:04;;;;;;;2.78;1.30;;;9.10;92.40;;;;;;4994405;28;20089;-76
2020/12/14 04:55:35;;;;;;;4.30;1.00;;;9.00;92.40;;;;;;5008857;28;20026;-76
2020/12/14 04:58:01;;;;;;;2.55;1.10;;;9.00;92.40;;;;;;4994423;28;20022;-74
2020/12/14 05:00:27;;;;;;;1.25;1.00;;;9.00;92.50;;;;;;4993870;28;20049;-76
2020/12/14 05:02:57;;;;;;;2.35;0.85;;;8.90;92.50;;;;;;4994357;28;20039;-75
2020/12/14 05:05:26;;;;;;;2.55;1.30;;;8.90;92.60;;;;;;4993527;28;20030;-85
2020/12/14 05:07:51;;;;;;;1.17;0.70;;;8.90;92.60;;;;;;4993496;28;20028;-75
2020/12/14 05:10:23;;;;;;;2.25;1.00;;;8.80;92.60;;;;;;4993959;28;20437;-75
2020/12/14 05:12:48;;;;;;;0.90;0.57;;;8.90;92.70;;;;;;4993907;28;20049;-75
2020/12/14 05:15:23;;;;;;;1.08;0.82;;;8.80;92.70;;;;;;4992631;28;20054;-76
2020/12/14 05:18:07;;;;;;;2.03;1.00;;;8.80;92.70;;;;;;4992145;28;20034;-75
2020/12/14 05:20:33;;;;;;;2.75;1.35;;;8.80;92.80;;;;;;5007884;28;20022;-75
2020/12/14 05:23:01;;;;;;;2.10;1.15;;;8.80;92.80;;;;;;4993625;28;20022;-75
2020/12/14 05:25:28;;;;;;;2.00;0.95;;;8.80;92.80;;;;;;5007888;28;20034;-76
2020/12/14 05:28:16;;;;;;;1.60;0.90;;;8.80;92.90;;;;;;4993734;28;20026;-75
2020/12/14 05:30:43;;;;;;;4.30;1.40;;;8.80;92.90;;;;;;4991751;28;20011;-75
2020/12/14 05:33:12;;;;;;;4.28;1.25;;;8.70;92.90;;;;;;5008116;28;20026;-75
2020/12/14 05:35:40;;;;;;;1.92;1.00;;;8.80;93.00;;;;;;5007778;28;20030;-75
2020/12/14 05:38:09;;;;;;;4.50;1.17;;;8.80;93.00;;;;;;4993391;28;20026;-75
2020/12/14 05:40:35;;;;;;;2.92;1.00;;;8.80;93.00;;;;;;4991290;28;20077;-76
2020/12/14 05:43:10;;;;;;;4.47;1.20;;;8.70;93.00;;;;;;4991936;28;20026;-75
2020/12/14 05:45:37;;;;;;;1.38;0.82;;;8.70;93.00;;;;;;4992692;28;20051;-75
2020/12/14 05:48:03;;;;;;;2.70;1.05;;;8.70;93.10;;;;;;5008204;28;20506;-75
2020/12/14 05:50:29;;;;;;;2.47;1.20;;;8.70;93.10;;;;;;4992590;28;20026;-76
2020/12/14 05:52:57;;;;;;;2.60;1.30;;;8.70;93.10;;;;;;4991289;28;20042;-76
2020/12/14 05:55:22;;;;;;;2.90;1.25;;;8.70;93.10;;;;;;4993107;28;20034;-76
2020/12/14 05:57:51;;;;;;;1.92;1.08;;;8.70;93.10;;;;;;4991266;28;20034;-76
2020/12/14 06:00:18;;;;;;;1.15;0.80;;;8.70;93.10;;;;;;5008009;28;20425;-76
2020/12/14 06:02:44;;;;;;;1.08;0.93;;;8.70;93.10;;;;;;4992661;28;20027;-75
2020/12/14 06:05:10;;;;;;;1.83;0.90;;;8.70;93.20;;;;;;5008022;28;20031;-75
2020/12/14 06:07:38;;;;;;;1.85;1.13;;;8.70;93.20;;;;;;5007448;28;20057;-75
2020/12/14 06:10:15;;;;;;;3.08;1.30;;;8.70;93.30;;;;;;5007791;28;20053;-76
2020/12/14 06:12:44;;;;;;;4.72;1.35;;;8.70;93.30;;;;;;5007254;28;20109;-75
2020/12/14 06:15:15;;;;;;;2.15;1.02;;;8.70;93.30;;;;;;4992687;28;20026;-75
2020/12/14 06:17:42;;;;;;;2.70;1.02;;;8.70;93.30;;;;;;4990655;28;20045;-75
2020/12/14 06:20:16;;;;;;;2.05;1.10;;;8.70;93.30;;;;;;4990521;28;20027;-74
2020/12/14 06:22:48;;;;;;;2.05;1.10;;;8.70;93.30;;;;;;4990456;28;20089;-75
2020/12/14 06:25:15;;;;;;;3.28;1.38;;;8.80;93.30;;;;;;4992091;28;20026;-75
2020/12/14 06:27:40;;;;;;;2.17;1.00;;;8.80;93.30;;;;;;4990654;28;20477;-75
2020/12/14 06:30:34;;;;;;;3.50;1.65;;;8.80;93.30;;;;;;4992738;28;20066;-75
2020/12/14 06:33:12;;;;;;;2.10;1.00;;;8.80;93.30;;;;;;4974427;28;20347;-75
2020/12/14 06:35:41;;;;;;;2.10;1.00;;;8.80;93.30;;;;;;4972146;28;20027;-74
2020/12/14 06:38:07;;;;;;;2.65;1.27;;;8.80;93.40;;;;;;4992001;28;20057;-75
2020/12/14 06:40:55;;;;;;;2.13;0.95;;;8.70;93.40;;;;;;4989937;28;20054;-75
2020/12/14 06:43:30;;;;;;;2.38;1.20;;;8.80;93.40;;;;;;4974926;28;20026;-74
2020/12/14 06:45:56;;;;;;;3.70;1.05;;;8.80;93.40;;;;;;4992088;28;20470;-74
2020/12/14 06:48:51;;;;;;;5.53;1.13;;;8.80;93.40;;;;;;4992661;28;20031;-74
2020/12/14 06:51:17;;;;;;;3.25;1.42;;;8.80;93.40;;;;;;4973609;28;20034;-74
2020/12/14 06:53:52;;;;;;;3.85;1.10;;;8.80;93.40;;;;;;4992146;28;20133;-74
2020/12/14 06:56:26;;;;;;;1.80;1.00;;;8.80;93.50;;;;;;4992478;28;20462;-74
2020/12/14 06:58:53;;;;;;;5.18;1.80;;;8.80;93.50;;;;;;4974455;28;20026;-75
2020/12/14 07:01:33;;;;;;;2.40;1.13;;;8.70;93.50;;;;;;4992405;28;20101;-75
2020/12/14 07:04:01;;;;;;;5.22;1.35;;;8.80;93.60;;;;;;4992259;28;20125;-75
2020/12/14 07:06:27;;;;;;;3.35;1.20;;;8.70;93.60;;;;;;4992290;28;20050;-74
2020/12/14 07:08:53;;;;;;;2.00;1.08;;;8.70;93.60;;;;;;4990494;28;20069;-74
2020/12/14 07:11:21;;;;;;;1.63;1.00;;;8.80;93.60;;;;;;4974762;28;20029;-74
2020/12/14 07:13:48;;;;;;;7.13;2.75;;;8.80;93.60;;;;;;4991592;28;20019;-75
2020/12/14 07:16:15;;;;;;;2.35;1.40;;;8.80;93.70;;;;;;4990129;28;20026;-75
2020/12/14 07:18:43;;;;;;;3.55;1.50;;;8.80;93.70;;;;;;4990537;28;20323;-74
2020/12/14 07:21:17;;;;;;;3.03;1.40;;;8.80;93.80;;;;;;4990014;28;20027;-75
2020/12/14 07:23:47;;;;;;;5.13;1.40;;;8.80;93.80;;;;;;4990370;28;20113;-74
2020/12/14 07:26:15;;;;;;;2.42;1.20;;;8.80;93.80;;;;;;4991021;28;20042;-74
2020/12/14 07:28:48;;;;;;;2.88;1.40;;;8.80;93.80;;;;;;4989058;28;20031;-74
2020/12/14 07:31:24;;;;;;;3.10;1.23;;;8.80;93.80;;;;;;4991676;28;20027;-74
2020/12/14 07:33:50;;;;;;;4.70;1.25;;;8.80;93.80;;;;;;4994199;28;20026;-75
2020/12/14 07:36:16;;;;;;;2.22;1.10;;;8.80;93.80;;;;;;4994542;28;20018;-76
2020/12/14 07:38:53;;;;;;;3.35;1.30;;;8.80;93.80;;;;;;4994086;28;20034;-75
2020/12/14 07:41:20;;;;;;;2.92;1.20;;;8.80;93.90;;;;;;4977166;28;20072;-75
2020/12/14 07:43:54;;;;;;;4.20;1.60;;;8.80;93.90;;;;;;4993611;28;20054;-75
2020/12/14 07:46:33;;;;;;;3.45;1.50;;;8.80;93.90;;;;;;4993862;28;20151;-75
2020/12/14 07:49:10;;;;;;;2.42;1.48;;;8.90;93.90;;;;;;4993962;28;20033;-75
2020/12/14 07:51:41;;;;;;;3.92;1.70;;;8.90;93.90;;;;;;4993171;28;20026;-75
2020/12/14 07:54:19;;;;;;;4.38;1.20;;;8.90;94.00;;;;;;4995121;28;20054;-74
2020/12/14 07:57:01;;;;;;;4.93;1.45;;;8.90;94.00;;;;;;4994838;28;20061;-74
2020/12/14 07:59:28;;;;;;;5.53;1.30;;;8.90;94.00;;;;;;4995167;28;20018;-73
2020/12/14 08:01:55;;;;;;;3.08;1.50;;;8.90;94.00;;;;;;4993131;28;20132;-74
2020/12/14 08:04:25;;;;;;;3.50;1.50;;;8.90;94.00;;;;;;4976995;28;20092;-74
2020/12/14 08:06:52;;;;;;;3.80;1.58;;;8.90;94.10;;;;;;4994475;28;20026;-74
2020/12/14 08:09:39;;;;;;;3.25;1.63;;;9.00;94.10;;;;;;4994780;28;20037;-74
2020/12/14 08:12:06;;;;;;;3.15;1.50;;;9.00;94.00;;;;;;4994483;28;20567;-74
2020/12/14 08:14:32;;;;;;;4.68;1.20;;;9.00;94.10;;;;;;4994591;28;20080;-74
2020/12/14 08:16:59;;;;;;;5.47;1.23;;;9.00;94.10;;;;;;4994149;28;20113;-75
2020/12/14 08:19:25;;;;;;;3.70;1.65;;;9.00;94.10;;;;;;4993453;28;20352;-74
2020/12/14 08:22:12;;;;;;;4.35;1.70;;;9.00;94.10;;;;;;4992590;28;20509;-75
2020/12/14 08:24:39;;;;;;;4.45;1.80;;;9.10;94.20;;;;;;4993929;28;20034;-75
2020/12/14 08:27:15;;;;;;;4.97;1.60;;;9.10;94.20;;;;;;4994262;28;20384;-74
2020/12/14 08:30:08;;;;;;;5.07;2.17;;;9.10;94.20;;;;;;4993857;28;20026;-75
2020/12/14 08:32:34;;;;;;;5.15;1.63;;;9.10;94.10;;;;;;4990506;28;20509;-74
2020/12/14 08:35:00;;;;;;;3.83;1.50;;;9.10;94.20;;;;;;4976266;28;20113;-74
2020/12/14 08:37:25;;;;;;;3.90;1.77;;;9.10;94.20;;;;;;4994341;28;20026;-74
2020/12/14 08:39:59;;;;;;;5.03;1.77;;;9.20;94.20;;;;;;4993743;28;20101;-74
2020/12/14 08:42:29;;;;;;;3.42;1.50;;;9.20;94.30;;;;;;4976867;28;20027;-74
2020/12/14 08:45:09;;;;;;;6.25;2.00;;;9.10;94.20;;;;;;4993459;28;20407;-74
2020/12/14 08:47:39;;;;;;;4.03;1.52;;;9.20;94.30;;;;;;4994298;28;20029;-74
2020/12/14 08:50:08;;;;;;;3.67;1.90;;;9.20;94.30;;;;;;4992901;28;20057;-74
2020/12/14 08:52:34;;;;;;;4.22;1.70;;;9.20;94.30;;;;;;4992513;28;20497;-75
2020/12/14 08:55:00;;;;;;;4.38;2.10;;;9.20;94.30;;;;;;4993068;28;20034;-74
2020/12/14 08:57:31;;;;;;;5.13;1.45;;;9.30;94.30;;;;;;4992257;28;20073;-75
2020/12/14 09:00:08;;;;;;;3.60;1.33;;;9.30;94.30;;;;;;4993264;28;20030;-75
2020/12/14 09:02:34;;;;;;;4.60;1.75;;;9.30;94.30;;;;;;4992233;28;20069;-75
2020/12/14 09:05:17;;;;;;;5.25;1.88;;;9.30;94.30;;;;;;4974052;28;20043;-75
2020/12/14 09:07:42;;;;;;;5.28;2.05;;;9.40;94.20;;;;;;4990692;28;20021;-75
2020/12/14 09:10:20;;;;;;;2.38;1.17;;;9.40;94.30;;;;;;4993597;28;20101;-75
2020/12/14 09:12:46;;;;;;;5.55;1.48;;;9.40;94.20;;;;;;4991975;28;20033;-76
2020/12/14 09:15:11;;;;;;;4.03;1.48;;;9.40;94.30;;;;;;4993105;28;20054;-76
2020/12/14 09:17:37;;;;;;;3.42;1.48;;;9.40;94.30;;;;;;4991653;28;20056;-75
2020/12/14 09:20:08;;;;;;;5.80;2.08;;;9.50;94.30;;;;;;4991136;28;20524;-75
2020/12/14 09:22:33;;;;;;;5.32;1.65;;;9.50;94.30;;;;;;4991974;28;20068;-74
2020/12/14 09:24:59;;;;;;;5.65;1.98;;;9.50;94.30;;;;;;4992806;28;20038;-74
2020/12/14 09:27:24;;;;;;;5.70;1.90;;;9.50;94.30;;;;;;4992116;28;20485;-74
2020/12/14 09:29:50;;;;;;;4.20;1.65;;;9.50;94.30;;;;;;4992571;28;20026;-76
2020/12/14 09:32:17;;;;;;;4.93;1.73;;;9.60;94.30;;;;;;4993514;28;20022;-75
2020/12/14 09:34:43;;;;;;;4.10;1.60;;;9.60;94.30;;;;;;4992500;28;20037;-76
2020/12/14 09:37:09;;;;;;;4.55;1.60;;;9.70;94.30;;;;;;4993259;28;20030;-75
2020/12/14 09:39:35;;;;;;;3.65;1.70;;;9.70;94.30;;;;;;4989050;28;20019;-75
2020/12/14 09:42:02;;;;;;;5.93;1.83;;;9.80;94.30;;;;;;4959238;28;20076;-75
2020/12/14 09:44:29;;;;;;;6.35;1.50;;;9.80;94.30;;;;;;4990778;28;21412;-75
2020/12/14 09:46:57;;;;;;;3.65;1.45;;;9.80;94.30;;;;;;4990784;28;20065;-75
2020/12/14 09:49:22;;;;;;;3.22;1.38;;;9.90;94.30;;;;;;4991132;28;20027;-75
2020/12/14 09:51:48;;;;;;;4.75;1.88;;;9.90;94.30;;;;;;4990785;28;20108;-75
2020/12/14 09:54:14;;;;;;;3.67;1.58;;;9.90;94.30;;;;;;4996812;28;20082;-75
2020/12/14 09:56:42;;;;;;;5.45;2.10;;;9.90;94.30;;;;;;4990946;28;20050;-80
2020/12/14 09:59:08;;;;;;;3.60;1.58;;;10.00;94.30;;;;;;4974333;28;20034;-75
2020/12/14 10:01:34;;;;;;;2.83;1.45;;;10.00;94.40;;;;;;4991671;28;20018;-76
2020/12/14 10:04:00;;;;;;;5.03;2.22;;;10.00;94.40;;;;;;4990089;28;20022;-75
2020/12/14 10:06:26;;;;;;;3.33;1.65;;;10.00;94.40;;;;;;4982277;28;20117;-75
2020/12/14 10:08:52;;;;;;;6.32;2.08;;;10.10;94.40;;;;;;4991230;28;20429;-77
2020/12/14 10:11:21;;;;;;;3.10;1.40;;;10.10;94.40;;;;;;4991245;28;20042;-74
2020/12/14 10:13:47;;;;;;;5.45;1.45;;;10.10;94.40;;;;;;4996781;28;20129;-75
2020/12/14 10:16:13;;;;;;;2.50;1.33;;;10.10;94.40;;;;;;4991247;28;20042;-75
2020/12/14 10:18:39;;;;;;;3.35;1.48;;;10.20;94.40;;;;;;4991162;28;20025;-74
2020/12/14 10:21:06;;;;;;;4.22;1.52;;;10.20;94.40;;;;;;4990495;28;20216;-75
2020/12/14 10:23:32;;;;;;;5.00;1.67;;;10.20;94.40;;;;;;4991429;28;20027;-75
2020/12/14 10:25:58;;;;;;;5.68;1.67;;;10.30;94.50;;;;;;4988175;28;20036;-75
2020/12/14 10:28:24;;;;;;;3.50;1.27;;;10.30;94.50;;;;;;4995383;28;20018;-75
2020/12/14 10:30:50;;;;;;;6.07;1.98;;;10.40;94.50;;;;;;4989281;28;20478;-76
2020/12/14 10:33:17;;;;;;;5.03;1.20;;;10.40;94.50;;;;;;4990963;28;20100;-76
2020/12/14 10:35:44;;;;;;;3.95;1.63;;;10.40;94.50;;;;;;4991479;28;20050;-76
2020/12/14 10:38:10;;;;;;;2.20;1.38;;;10.50;94.50;;;;;;4991088;28;20022;-76
2020/12/14 10:40:36;;;;;;;4.22;1.60;;;10.50;94.50;;;;;;4973245;28;20359;-75
2020/12/14 10:43:01;;;;;;;5.35;1.60;;;10.50;94.40;;;;;;4977205;28;20977;-75
2020/12/14 10:45:27;;;;;;;5.35;1.58;;;10.60;94.40;;;;;;4980326;28;20035;-75
2020/12/14 10:47:53;;;;;;;4.00;1.70;;;10.60;94.40;;;;;;4990509;28;20351;-76
2020/12/14 10:50:19;;;;;;;4.65;1.63;;;10.70;94.40;;;;;;4991417;28;20026;-76
2020/12/14 10:52:45;;;;;;;3.58;1.73;;;10.80;94.40;;;;;;4990709;28;20300;-76
2020/12/14 10:55:11;;;;;;;3.85;1.55;;;10.70;94.30;;;;;;4989239;28;20505;-76
2020/12/14 10:57:37;;;;;;;2.95;1.40;;;10.80;94.30;;;;;;4989977;28;20026;-75
2020/12/14 11:00:07;;;;;;;4.35;1.40;;;10.90;94.30;;;;;;4988785;28;20110;-75
2020/12/14 11:02:40;;;;;;;3.70;1.55;;;10.80;94.20;;;;;;4990413;28;20037;-80
2020/12/14 11:05:07;;;;;;;5.90;1.60;;;10.90;94.30;;;;;;4988987;28;20065;-75
2020/12/14 11:07:34;;;;;;;3.72;1.25;;;10.90;94.30;;;;;;4976138;28;20031;-76
2020/12/14 11:10:00;;;;;;;3.75;2.10;;;10.90;94.20;;;;;;4993176;28;20065;-76
2020/12/14 11:12:27;;;;;;;5.28;1.95;;;10.90;94.20;;;;;;4993506;28;20493;-77
2020/12/14 11:14:53;;;;;;;3.45;1.73;;;11.00;94.20;;;;;;4993648;28;20050;-76
2020/12/14 11:17:19;;;;;;;3.25;1.55;;;11.00;94.20;;;;;;4993050;28;20045;-77
2020/12/14 11:19:45;;;;;;;2.33;1.17;;;11.00;94.20;;;;;;4992733;28;20018;-77
2020/12/14 11:22:11;;;;;;;3.08;1.90;;;10.90;94.20;;;;;;4991948;28;20041;-77
2020/12/14 11:24:36;;;;;;;4.40;2.15;;;11.00;94.20;;;;;;4993742;28;20037;-77
2020/12/14 11:27:03;;;;;;;4.43;1.90;;;11.00;94.30;;;;;;4975949;28;20371;-75
2020/12/14 11:29:29;;;;;;;3.47;1.67;;;10.90;94.20;;;;;;4995348;28;20037;-77
2020/12/14 11:31:55;;;;;;;4.05;1.70;;;10.90;94.30;;;;;;4994487;28;20038;-78
2020/12/14 11:34:21;;;;;;;3.60;1.42;;;11.00;94.30;;;;;;4996533;28;20022;-77
2020/12/14 11:36:47;;;;;;;3.05;1.50;;;11.00;94.30;;;;;;4995073;28;20077;-78
2020/12/14 11:39:13;;;;;;;3.17;1.45;;;11.00;94.30;;;;;;4985657;28;20370;-82
2020/12/14 11:41:39;;;;;;;3.67;1.42;;;11.00;94.30;;;;;;4995133;28;20033;-76
2020/12/14 11:44:09;;;;;;;3.35;1.92;;;11.00;94.30;;;;;;4995223;28;20061;-77
2020/12/14 11:46:35;;;;;;;6.25;1.33;;;11.00;94.30;;;;;;4985585;28;20050;-77
2020/12/14 11:49:00;;;;;;;3.75;2.08;;;11.10;94.30;;;;;;4981768;28;20410;-76
2020/12/14 11:51:26;;;;;;;3.25;1.45;;;11.10;94.30;;;;;;4993928;28;20042;-75
2020/12/14 11:53:52;;;;;;;4.38;1.58;;;11.10;94.20;;;;;;4973955;28;20436;-80
2020/12/14 11:56:17;;;;;;;5.45;2.35;;;11.10;94.20;;;;;;4986255;28;20026;-76
2020/12/14 11:58:43;;;;;;;3.70;1.80;;;11.10;94.20;;;;;;4987005;28;20085;-80
2020/12/14 12:01:09;;;;;;;4.90;1.95;;;11.10;94.20;;;;;;4991513;28;20037;-76
2020/12/14 12:03:34;;;;;;;3.47;1.52;;;11.10;94.30;;;;;;4993767;28;20026;-78
2020/12/14 12:06:01;;;;;;;4.97;1.83;;;11.20;94.30;;;;;;4987279;28;20061;-73
2020/12/14 12:08:26;;;;;;;4.13;1.73;;;11.10;94.20;;;;;;4990387;28;20044;-76
2020/12/14 12:10:52;;;;;;;3.55;1.50;;;11.10;94.20;;;;;;4990047;28;20035;-81
2020/12/14 12:13:19;;;;;;;5.00;1.80;;;11.10;94.20;;;;;;4990873;28;20057;-76
2020/12/14 12:15:45;;;;;;;2.85;1.58;;;11.20;94.20;;;;;;4986951;28;20188;-76
2020/12/14 12:18:13;;;;;;;3.55;1.75;;;11.10;94.20;;;;;;4988666;28;20026;-73
2020/12/14 12:20:39;;;;;;;4.13;1.73;;;11.20;94.20;;;;;;4989520;28;20111;-73
2020/12/14 12:23:05;;;;;;;3.45;1.70;;;11.20;94.20;;;;;;4989301;28;20477;-74
2020/12/14 12:25:31;;;;;;;6.85;2.35;;;11.20;94.20;;;;;;4978785;28;20026;-74
2020/12/14 12:27:57;;;;;;;5.03;2.20;;;11.20;94.20;;;;;;4990510;28;20022;-77
2020/12/14 12:30:22;;;;;;;5.07;2.05;;;11.20;94.20;;;;;;4971423;28;20022;-74
2020/12/14 12:32:48;;;;;;;4.65;2.17;;;11.20;94.20;;;;;;4990039;28;20370;-75
2020/12/14 12:35:14;;;;;;;7.35;2.53;;;11.30;94.10;;;;;;4990415;28;20030;-77
2020/12/14 12:37:40;;;;;;;6.53;2.10;;;11.30;94.10;;;;;;4991214;28;20026;-73
2020/12/14 12:40:09;;;;;;;5.57;2.30;;;11.30;94.10;;;;;;4988610;28;20031;-73
2020/12/14 12:42:35;;;;;;;3.47;1.80;;;11.30;94.00;;;;;;4977031;28;20026;-73
2020/12/14 12:45:01;;;;;;;6.68;2.00;;;11.40;94.00;;;;;;4991118;28;20390;-74
2020/12/14 12:47:27;;;;;;;2.85;1.60;;;11.40;94.00;;;;;;4989504;28;20455;-73
2020/12/14 12:49:53;;;;;;;3.20;1.60;;;11.50;93.90;;;;;;4990519;28;20031;-74
2020/12/14 12:52:19;;;;;;;5.95;2.05;;;11.50;93.90;;;;;;4990678;28;20042;-75
2020/12/14 12:54:44;;;;;;;4.35;1.85;;;11.50;93.90;;;;;;4992314;28;20108;-74
2020/12/14 12:57:10;;;;;;;3.40;1.60;;;11.60;93.90;;;;;;4979494;28;20042;-74